This is the latest recevied weather packets stored in our database for station/object CE3UOB-10. If no packets are shown the sender has not sent any weather packets the latest 10 day(s).
| Time | Temp. | Humidity | Pressure | Rain* | Wind** | Luminosity | Snow |
|---|---|---|---|---|---|---|---|
| 1777820262 | 13.33° C | 61% | 996.3 hPa | - | - | - | - |
| 1777818461 | 12.22° C | 65% | 996.4 hPa | - | - | - | - |
| 1777815330 | 10° C | 77% | 996.8 hPa | - | - | - | - |
| 1777813532 | 8.33° C | 79% | 996.8 hPa | - | - | - | - |
| 1777809924 | 6.11° C | 79% | 996.7 hPa | - | - | - | - |
| 1777809920 | 6.11° C | 79% | 996.7 hPa | - | - | - | - |
| 1777808124 | 6.11° C | 78% | 996.5 hPa | - | - | - | - |
| 1777808120 | 6.11° C | 78% | 996.5 hPa | - | - | - | - |
| 1777806324 | 6.11° C | 78% | 996.1 hPa | - | - | - | - |
| 1777806320 | 6.11° C | 78% | 996.1 hPa | - | - | - | - |
| 1777804524 | 6.11° C | 78% | 995.8 hPa | - | - | - | - |
| 1777804520 | 6.11° C | 78% | 995.8 hPa | - | - | - | - |
| 1777802724 | 5.56° C | 82% | 995.9 hPa | - | - | - | - |
| 1777802719 | 5.56° C | 82% | 995.9 hPa | - | - | - | - |
| 1777800923 | 7.22° C | 76% | 995.7 hPa | - | - | - | - |
| 1777800919 | 7.22° C | 76% | 995.7 hPa | - | - | - | - |
| 1777799123 | 6.11° C | 82% | 995.7 hPa | - | - | - | - |
| 1777799119 | 6.11° C | 82% | 995.7 hPa | - | - | - | - |
| 1777797323 | 7.22° C | 80% | 995.4 hPa | - | - | - | - |
| 1777797319 | 7.22° C | 80% | 995.4 hPa | - | - | - | - |
| 1777795524 | 8.33° C | 77% | 995.6 hPa | - | - | - | - |
| 1777795519 | 8.33° C | 77% | 995.6 hPa | - | - | - | - |
| 1777793728 | 8.33° C | 76% | 996 hPa | - | - | - | - |
| 1777793717 | 8.33° C | 76% | 996 hPa | - | - | - | - |
| 1777791936 | 8.33° C | 75% | 996.1 hPa | - | - | - | - |
* Rain since midnight (hover to see other rain measurements)
** Current wind speed in m/s (hover to see current wind gust speed)